Time;durP1;ratioP1;P1;durP2;ratioP2;P2;SDS_P1;SDS_P2;PMS_P1;PMS_P2;Temp;Humidity;BMP_temperature;BMP_pressure;BME280_temperature;BME280_humidity;BME280_pressure;Samples;Min_cycle;Max_cycle;Signal;HPM_P1;HPM_P2
2023/08/17 00:01:36;;;;;;;17.60;6.78;;;24.60;99.90;;;;;;5166690;28;20378;-76
2023/08/17 00:04:07;;;;;;;17.23;7.22;;;24.60;99.90;;;;;;5166708;28;20423;-81
2023/08/17 00:06:38;;;;;;;17.23;7.28;;;24.60;99.90;;;;;;5166772;28;20105;-76
2023/08/17 00:09:12;;;;;;;18.90;7.10;;;24.60;99.90;;;;;;5166970;28;20370;-76
2023/08/17 00:11:43;;;;;;;21.50;7.20;;;24.60;99.90;;;;;;5149175;28;20509;-82
2023/08/17 00:14:14;;;;;;;11.95;6.30;;;24.60;99.90;;;;;;5149238;28;20050;-76
2023/08/17 00:16:45;;;;;;;21.42;7.43;;;24.60;99.90;;;;;;5166657;28;20364;-76
2023/08/17 00:19:16;;;;;;;19.38;6.68;;;24.60;99.90;;;;;;5149040;28;20018;-76
2023/08/17 00:21:47;;;;;;;17.77;6.70;;;24.50;99.90;;;;;;5166274;28;20089;-80
2023/08/17 00:24:18;;;;;;;17.52;6.50;;;24.60;99.90;;;;;;5166041;28;20054;-76
2023/08/17 00:26:49;;;;;;;15.98;7.30;;;24.60;99.90;;;;;;5166492;28;20382;-81
2023/08/17 00:29:20;;;;;;;18.80;7.00;;;24.50;99.90;;;;;;5166483;28;20030;-78
2023/08/17 00:31:52;;;;;;;15.93;6.45;;;24.60;99.90;;;;;;5166313;28;20027;-77
2023/08/17 00:34:22;;;;;;;17.38;7.25;;;24.60;99.90;;;;;;5148979;28;20022;-81
2023/08/17 00:36:53;;;;;;;22.80;7.38;;;24.50;99.90;;;;;;5166356;28;20085;-76
2023/08/17 00:39:24;;;;;;;16.35;6.38;;;24.50;99.90;;;;;;5166294;28;20065;-76
2023/08/17 00:41:55;;;;;;;22.67;6.65;;;24.50;99.90;;;;;;5150752;28;20046;-77
2023/08/17 00:44:26;;;;;;;19.75;6.97;;;24.60;99.90;;;;;;5172867;28;20496;-79
2023/08/17 00:46:57;;;;;;;12.68;6.20;;;24.50;99.90;;;;;;5155550;28;20061;-76
2023/08/17 00:49:28;;;;;;;15.27;6.43;;;24.50;99.90;;;;;;5172818;28;20022;-76
2023/08/17 00:51:58;;;;;;;20.83;7.05;;;24.50;99.90;;;;;;5155240;28;20130;-82
2023/08/17 00:54:30;;;;;;;19.25;6.80;;;24.50;99.90;;;;;;5173294;28;20030;-77
2023/08/17 00:57:01;;;;;;;21.17;6.88;;;24.50;99.90;;;;;;5155320;28;20038;-76
2023/08/17 00:59:32;;;;;;;17.55;6.78;;;24.50;99.90;;;;;;5155147;28;20053;-77
2023/08/17 01:02:03;;;;;;;19.48;6.25;;;24.50;99.90;;;;;;5172900;28;20030;-77
2023/08/17 01:04:35;;;;;;;17.58;6.55;;;24.50;99.90;;;;;;5155317;28;20486;-76
2023/08/17 01:07:06;;;;;;;22.50;6.97;;;24.50;99.90;;;;;;5172575;28;20121;-76
2023/08/17 01:09:38;;;;;;;17.63;6.90;;;24.60;99.90;;;;;;5172637;28;20113;-76
2023/08/17 01:12:24;;;;;;;14.95;6.60;;;24.40;99.90;;;;;;5155087;28;20542;-76
2023/08/17 01:15:08;;;;;;;15.95;6.53;;;24.50;99.90;;;;;;5172871;28;20030;-77
2023/08/17 01:17:58;;;;;;;18.85;6.38;;;24.40;99.90;;;;;;5172827;28;20073;-76
2023/08/17 01:20:31;;;;;;;18.13;6.43;;;24.40;99.90;;;;;;5155114;28;20042;-76
2023/08/17 01:23:08;;;;;;;20.13;6.30;;;24.40;99.90;;;;;;5172438;28;20097;-81
2023/08/17 01:25:38;;;;;;;18.58;6.28;;;24.50;99.90;;;;;;5172595;28;20050;-76
2023/08/17 01:28:09;;;;;;;17.95;6.57;;;24.50;99.90;;;;;;5172546;28;20062;-76
2023/08/17 01:31:02;;;;;;;17.42;6.55;;;24.50;99.90;;;;;;5172643;28;20026;-82
2023/08/17 01:34:05;;;;;;;19.67;6.35;;;24.50;99.90;;;;;;5172773;28;20061;-77
2023/08/17 01:36:42;;;;;;;18.42;6.78;;;24.40;99.90;;;;;;5139730;28;20034;-76
2023/08/17 01:39:16;;;;;;;20.50;7.10;;;24.50;99.90;;;;;;5172295;28;20033;-76
2023/08/17 01:41:47;;;;;;;20.48;6.68;;;24.50;99.90;;;;;;5172511;28;20105;-76
2023/08/17 01:44:18;;;;;;;18.75;7.00;;;24.50;99.90;;;;;;5154882;28;20026;-76
2023/08/17 01:46:49;;;;;;;27.70;7.05;;;24.40;99.90;;;;;;5154974;28;20030;-77
2023/08/17 01:49:20;;;;;;;15.25;6.30;;;24.40;99.90;;;;;;5172442;28;20061;-76
2023/08/17 01:51:51;;;;;;;16.67;6.03;;;24.40;99.90;;;;;;5154584;28;20478;-79
2023/08/17 01:54:22;;;;;;;18.38;7.10;;;24.50;99.90;;;;;;5169419;28;20073;-76
2023/08/17 01:56:53;;;;;;;12.60;6.07;;;24.50;99.90;;;;;;5169263;28;20030;-83
2023/08/17 01:59:24;;;;;;;16.05;6.40;;;24.50;99.90;;;;;;5151452;28;20922;-76
2023/08/17 02:01:54;;;;;;;15.32;6.35;;;24.50;99.90;;;;;;5151530;28;20101;-77
2023/08/17 02:04:25;;;;;;;16.65;6.65;;;24.40;99.90;;;;;;5168658;28;20049;-77
2023/08/17 02:06:56;;;;;;;15.80;6.13;;;24.40;99.90;;;;;;5151534;28;20034;-76
2023/08/17 02:09:27;;;;;;;18.73;6.43;;;24.50;99.90;;;;;;5168649;28;20475;-76
2023/08/17 02:11:58;;;;;;;12.88;5.93;;;24.50;99.90;;;;;;5168878;28;20034;-82
2023/08/17 02:14:29;;;;;;;16.02;6.13;;;24.50;99.90;;;;;;5168867;28;20045;-76
2023/08/17 02:17:00;;;;;;;14.77;6.03;;;24.50;99.90;;;;;;5168581;28;20034;-76
2023/08/17 02:19:31;;;;;;;16.52;6.55;;;24.50;99.90;;;;;;5168699;28;20029;-78
2023/08/17 02:22:02;;;;;;;17.77;6.20;;;24.50;99.90;;;;;;5150860;28;20494;-76
2023/08/17 02:24:33;;;;;;;18.15;6.57;;;24.50;99.90;;;;;;5168842;28;20042;-76
2023/08/17 02:27:04;;;;;;;19.65;6.57;;;24.50;99.90;;;;;;5168676;28;20722;-81
2023/08/17 02:29:35;;;;;;;15.45;6.63;;;24.40;99.90;;;;;;5150886;28;20038;-76
2023/08/17 02:32:06;;;;;;;14.68;6.13;;;24.50;99.90;;;;;;5168866;28;20022;-77
2023/08/17 02:34:37;;;;;;;12.95;6.32;;;24.50;99.90;;;;;;5151582;28;20026;-76
2023/08/17 02:37:07;;;;;;;19.45;7.05;;;24.50;99.90;;;;;;5168572;28;20033;-76
2023/08/17 02:39:39;;;;;;;11.75;5.93;;;24.50;99.90;;;;;;5168328;28;20034;-76
2023/08/17 02:42:10;;;;;;;18.67;6.40;;;24.50;99.90;;;;;;5150842;28;20022;-77
2023/08/17 02:44:41;;;;;;;17.48;5.88;;;24.40;99.90;;;;;;5168166;28;20030;-76
2023/08/17 02:47:12;;;;;;;15.95;5.88;;;24.50;99.90;;;;;;5168345;28;20036;-78
2023/08/17 02:49:43;;;;;;;17.85;6.70;;;24.50;99.90;;;;;;5168252;28;20019;-81
2023/08/17 02:52:14;;;;;;;16.35;6.57;;;24.50;99.90;;;;;;5168065;28;20061;-76
2023/08/17 02:54:44;;;;;;;16.85;6.75;;;24.40;99.90;;;;;;5150855;28;20517;-76
2023/08/17 02:57:15;;;;;;;16.33;6.43;;;24.50;99.90;;;;;;5167843;28;20030;-76
2023/08/17 02:59:46;;;;;;;14.82;6.55;;;24.50;99.90;;;;;;5168012;28;20109;-82
2023/08/17 03:02:17;;;;;;;14.40;6.72;;;24.50;99.90;;;;;;5150527;28;20041;-76
2023/08/17 03:04:48;;;;;;;18.05;6.00;;;24.50;99.90;;;;;;5166917;28;20030;-78
2023/08/17 03:07:19;;;;;;;20.98;6.75;;;24.40;99.90;;;;;;5167366;28;20034;-82
2023/08/17 03:09:50;;;;;;;18.15;6.78;;;24.50;99.90;;;;;;5150285;28;20385;-76
2023/08/17 03:12:20;;;;;;;22.70;6.38;;;24.50;99.90;;;;;;5167759;28;20486;-76
2023/08/17 03:14:51;;;;;;;14.13;6.22;;;24.40;99.90;;;;;;5150296;28;20045;-76
2023/08/17 03:17:22;;;;;;;18.85;6.40;;;24.40;99.90;;;;;;5150216;28;20034;-76
2023/08/17 03:19:53;;;;;;;18.83;6.38;;;24.40;99.90;;;;;;5167546;28;20030;-79
2023/08/17 03:22:24;;;;;;;17.48;6.57;;;24.40;99.90;;;;;;5167262;28;20069;-76
2023/08/17 03:24:55;;;;;;;18.70;6.00;;;24.50;99.90;;;;;;5167708;28;20061;-77
2023/08/17 03:27:28;;;;;;;15.25;5.72;;;24.60;99.90;;;;;;5149649;28;20482;-77
2023/08/17 03:29:59;;;;;;;13.10;6.00;;;24.50;99.90;;;;;;5150104;28;20022;-76
2023/08/17 03:32:30;;;;;;;15.80;6.22;;;24.50;99.90;;;;;;5167651;28;20026;-76
2023/08/17 03:35:01;;;;;;;18.30;6.53;;;24.50;99.90;;;;;;5167365;28;20439;-76
2023/08/17 03:37:31;;;;;;;16.15;6.05;;;24.40;99.90;;;;;;5167285;28;20364;-76
2023/08/17 03:40:03;;;;;;;15.98;6.05;;;24.50;99.90;;;;;;5149745;28;20410;-76
2023/08/17 03:42:34;;;;;;;14.35;6.15;;;24.50;99.90;;;;;;5149380;28;20438;-82
2023/08/17 03:45:05;;;;;;;17.60;6.47;;;24.50;99.90;;;;;;5167022;28;20061;-80
2023/08/17 03:47:36;;;;;;;15.43;5.47;;;24.60;99.90;;;;;;5167268;28;20080;-76
2023/08/17 03:50:08;;;;;;;14.02;5.70;;;24.60;99.90;;;;;;5166996;28;20423;-77
2023/08/17 03:52:39;;;;;;;13.15;5.80;;;24.60;99.90;;;;;;5149175;28;20129;-77
2023/08/17 03:55:10;;;;;;;19.67;6.00;;;24.60;99.90;;;;;;5167376;28;20041;-77
2023/08/17 03:57:41;;;;;;;20.42;6.10;;;24.60;99.90;;;;;;5166707;28;20111;-82
2023/08/17 04:00:12;;;;;;;18.58;5.82;;;24.60;99.90;;;;;;5149069;28;20030;-80
2023/08/17 04:02:43;;;;;;;16.02;5.65;;;24.70;99.90;;;;;;5166497;28;20121;-76
2023/08/17 04:05:14;;;;;;;15.07;5.47;;;24.70;99.90;;;;;;5166519;28;20030;-77
2023/08/17 04:07:45;;;;;;;16.42;5.85;;;24.70;99.90;;;;;;5149320;28;20041;-77
2023/08/17 04:10:15;;;;;;;15.90;7.13;;;24.70;99.90;;;;;;5166915;28;20041;-76
2023/08/17 04:12:46;;;;;;;16.58;5.80;;;24.80;99.90;;;;;;5166731;28;20053;-81
2023/08/17 04:15:17;;;;;;;17.55;5.80;;;24.80;99.90;;;;;;5149164;28;20523;-76
2023/08/17 04:17:48;;;;;;;14.95;5.38;;;24.80;99.90;;;;;;5148844;28;20026;-78
2023/08/17 04:20:19;;;;;;;15.57;5.65;;;24.80;99.90;;;;;;5166390;28;20026;-77
2023/08/17 04:22:50;;;;;;;20.23;6.00;;;24.80;99.90;;;;;;5148885;28;20133;-78
2023/08/17 04:25:21;;;;;;;17.42;5.95;;;24.80;99.90;;;;;;5148812;28;20031;-76
2023/08/17 04:27:51;;;;;;;12.60;5.80;;;24.80;99.90;;;;;;5166531;28;20026;-76
2023/08/17 04:30:22;;;;;;;17.90;6.07;;;24.80;99.90;;;;;;5166193;28;20410;-81
2023/08/17 04:32:53;;;;;;;14.60;5.60;;;24.90;99.90;;;;;;5166409;28;20474;-76
2023/08/17 04:35:24;;;;;;;13.05;5.63;;;24.90;99.90;;;;;;5166874;28;20029;-76
2023/08/17 04:37:55;;;;;;;16.25;5.47;;;24.90;99.90;;;;;;5166349;28;20041;-77
2023/08/17 04:40:26;;;;;;;14.38;5.72;;;25.00;99.90;;;;;;5166490;28;20393;-78
2023/08/17 04:42:57;;;;;;;20.42;6.40;;;25.00;99.90;;;;;;5166520;28;20015;-77
2023/08/17 04:45:28;;;;;;;16.88;5.80;;;25.00;99.90;;;;;;5165967;28;20037;-76
2023/08/17 04:47:59;;;;;;;15.40;5.93;;;25.10;99.90;;;;;;5166298;28;20378;-82
2023/08/17 04:50:29;;;;;;;12.65;5.47;;;25.10;99.90;;;;;;5166270;28;20054;-76
2023/08/17 04:53:00;;;;;;;13.75;5.93;;;25.20;99.90;;;;;;5166276;28;20034;-77
2023/08/17 04:55:34;;;;;;;15.00;5.78;;;25.30;99.90;;;;;;5166305;28;20034;-76
2023/08/17 04:58:05;;;;;;;14.68;6.18;;;25.40;99.90;;;;;;5166159;28;20034;-77
2023/08/17 05:00:37;;;;;;;14.13;6.20;;;25.50;99.90;;;;;;5165790;28;20035;-76
2023/08/17 05:03:08;;;;;;;12.40;5.95;;;25.60;99.90;;;;;;5166103;28;20057;-77
2023/08/17 05:05:39;;;;;;;16.25;6.20;;;25.60;99.90;;;;;;5166194;28;20487;-78
2023/08/17 05:08:10;;;;;;;12.90;5.28;;;25.80;99.90;;;;;;5166046;28;20529;-76
2023/08/17 05:10:41;;;;;;;12.55;5.57;;;25.90;99.90;;;;;;5148355;28;20029;-77
2023/08/17 05:13:11;;;;;;;15.82;6.18;;;25.90;99.90;;;;;;5166376;28;20022;-77
2023/08/17 05:15:42;;;;;;;11.13;6.30;;;26.00;99.90;;;;;;5166045;28;20042;-77
2023/08/17 05:18:13;;;;;;;12.70;5.60;;;26.00;99.90;;;;;;5165961;28;20018;-76
2023/08/17 05:20:44;;;;;;;10.93;6.03;;;26.10;99.90;;;;;;5165512;28;20038;-82
2023/08/17 05:23:15;;;;;;;15.48;6.43;;;26.10;99.90;;;;;;5147952;28;20097;-82
2023/08/17 05:25:48;;;;;;;13.23;5.30;;;26.20;99.90;;;;;;5165979;28;20061;-77
2023/08/17 05:28:19;;;;;;;12.02;5.75;;;26.30;99.90;;;;;;5166302;28;20033;-77
2023/08/17 05:30:50;;;;;;;13.35;6.05;;;26.30;99.90;;;;;;5169499;28;20027;-76
2023/08/17 05:33:21;;;;;;;13.73;5.93;;;26.40;99.90;;;;;;5152052;28;20057;-77
2023/08/17 05:35:55;;;;;;;13.38;6.00;;;26.40;99.90;;;;;;5169623;28;20022;-77
2023/08/17 05:38:26;;;;;;;15.90;5.72;;;26.50;99.90;;;;;;5169439;28;20038;-77
2023/08/17 05:40:59;;;;;;;11.23;6.03;;;26.70;99.90;;;;;;5169398;28;20089;-77
2023/08/17 05:43:30;;;;;;;12.57;5.95;;;26.80;99.90;;;;;;5151860;28;20058;-78
2023/08/17 05:46:01;;;;;;;12.75;5.45;;;26.80;99.90;;;;;;5169241;28;20061;-77
2023/08/17 05:48:32;;;;;;;12.80;5.72;;;26.80;99.90;;;;;;5169494;28;20493;-80
2023/08/17 05:51:03;;;;;;;12.45;5.20;;;26.80;99.90;;;;;;5169370;28;20022;-76
2023/08/17 05:53:34;;;;;;;9.85;5.45;;;26.80;99.90;;;;;;5151503;28;20037;-77
2023/08/17 05:56:05;;;;;;;15.13;5.55;;;26.80;99.90;;;;;;5169317;28;20061;-77
2023/08/17 05:58:36;;;;;;;14.55;5.63;;;26.80;99.90;;;;;;5169210;28;20022;-77
2023/08/17 06:01:08;;;;;;;15.23;5.78;;;26.80;99.90;;;;;;5168846;28;20406;-79
2023/08/17 06:03:38;;;;;;;12.63;5.38;;;26.80;99.90;;;;;;5151737;28;20026;-77
2023/08/17 06:06:10;;;;;;;16.08;5.68;;;26.80;99.90;;;;;;5151265;28;20030;-77
2023/08/17 06:08:40;;;;;;;16.45;5.15;;;26.90;99.90;;;;;;5169210;28;20026;-78
2023/08/17 06:11:11;;;;;;;17.55;5.78;;;26.90;99.90;;;;;;5151397;28;20034;-82
2023/08/17 06:13:42;;;;;;;11.63;5.22;;;27.10;99.90;;;;;;5168912;28;20378;-77
2023/08/17 06:16:13;;;;;;;13.45;5.40;;;27.00;99.90;;;;;;5151402;28;20035;-77
2023/08/17 06:18:44;;;;;;;12.75;5.25;;;27.00;99.90;;;;;;5169248;28;20023;-77
2023/08/17 06:21:15;;;;;;;15.63;5.40;;;27.10;99.90;;;;;;5168300;28;20089;-77
2023/08/17 06:23:45;;;;;;;11.70;5.50;;;27.20;99.90;;;;;;5168467;28;20081;-77
2023/08/17 06:26:16;;;;;;;18.77;5.95;;;27.00;99.90;;;;;;5168446;28;20038;-77
2023/08/17 06:28:47;;;;;;;9.60;5.30;;;26.90;99.90;;;;;;5168876;28;20088;-77
2023/08/17 06:31:22;;;;;;;14.75;5.72;;;26.80;99.90;;;;;;5151133;28;20058;-83
2023/08/17 06:33:54;;;;;;;13.35;5.25;;;26.90;99.90;;;;;;5168935;28;20109;-79
2023/08/17 06:36:25;;;;;;;14.23;5.28;;;26.90;99.90;;;;;;5169062;28;20517;-77
2023/08/17 06:38:56;;;;;;;13.52;5.57;;;26.80;99.90;;;;;;5150808;28;20022;-76
2023/08/17 06:41:27;;;;;;;15.23;5.35;;;26.90;99.90;;;;;;5168039;28;20038;-77
2023/08/17 06:43:57;;;;;;;14.50;5.57;;;27.10;99.90;;;;;;5168383;28;20375;-77
2023/08/17 06:46:28;;;;;;;16.40;5.68;;;27.20;99.90;;;;;;5150522;28;20165;-77
2023/08/17 06:48:59;;;;;;;12.75;5.25;;;27.20;99.90;;;;;;5167931;28;20490;-77
2023/08/17 06:51:30;;;;;;;13.50;5.78;;;27.30;99.90;;;;;;5150405;28;20478;-78
2023/08/17 06:54:01;;;;;;;18.08;6.07;;;27.40;99.90;;;;;;5168079;28;20030;-77
2023/08/17 06:56:32;;;;;;;12.80;5.43;;;27.50;99.90;;;;;;5168227;28;20058;-78
2023/08/17 06:59:03;;;;;;;16.73;5.85;;;27.70;99.90;;;;;;5150439;28;20053;-80
2023/08/17 07:01:33;;;;;;;15.73;6.93;;;27.50;99.90;;;;;;5168243;28;20038;-77
2023/08/17 07:04:05;;;;;;;17.30;7.10;;;27.50;99.90;;;;;;5150409;28;20034;-78
2023/08/17 07:06:36;;;;;;;13.65;6.88;;;27.70;99.90;;;;;;5167942;28;20062;-77
2023/08/17 07:09:07;;;;;;;15.18;6.95;;;27.50;99.90;;;;;;5150157;28;20019;-80
2023/08/17 07:11:39;;;;;;;15.32;7.10;;;27.60;99.90;;;;;;5150321;28;20022;-77
2023/08/17 07:14:09;;;;;;;12.35;7.15;;;27.70;99.90;;;;;;5167862;28;20030;-77
2023/08/17 07:16:40;;;;;;;11.65;6.43;;;27.60;99.90;;;;;;5168251;28;20030;-77
2023/08/17 07:19:13;;;;;;;14.10;6.65;;;27.50;99.90;;;;;;5149986;28;20033;-77
2023/08/17 07:21:44;;;;;;;15.13;6.97;;;27.40;99.90;;;;;;5167472;28;20114;-83
2023/08/17 07:24:15;;;;;;;11.13;6.50;;;27.40;99.90;;;;;;5149925;28;20050;-77
2023/08/17 07:26:46;;;;;;;12.52;6.97;;;27.40;99.90;;;;;;5167709;28;20026;-77
2023/08/17 07:29:17;;;;;;;19.88;7.22;;;27.40;99.90;;;;;;5167779;28;20023;-77
2023/08/17 07:31:48;;;;;;;14.32;6.97;;;27.60;99.90;;;;;;5149953;28;20023;-81
2023/08/17 07:34:20;;;;;;;14.52;6.95;;;27.70;99.90;;;;;;5167385;28;20034;-81
2023/08/17 07:36:51;;;;;;;16.17;7.43;;;27.70;99.90;;;;;;5149866;28;20034;-77
2023/08/17 07:39:21;;;;;;;18.10;7.55;;;27.70;99.90;;;;;;5167345;28;20074;-77
2023/08/17 07:41:52;;;;;;;13.68;6.65;;;27.70;99.90;;;;;;5167352;28;20042;-77
2023/08/17 07:44:23;;;;;;;16.77;7.15;;;27.90;99.90;;;;;;5167079;28;20049;-82
2023/08/17 07:46:54;;;;;;;11.68;6.78;;;27.80;99.90;;;;;;5167118;28;20037;-79
2023/08/17 07:49:25;;;;;;;20.25;7.63;;;28.00;99.90;;;;;;5149505;28;20019;-77
2023/08/17 07:51:56;;;;;;;12.00;6.50;;;27.90;99.90;;;;;;5148826;28;20471;-77
2023/08/17 07:54:27;;;;;;;14.75;6.53;;;28.00;99.90;;;;;;5167079;28;20077;-81
2023/08/17 07:56:58;;;;;;;14.00;6.32;;;28.00;99.90;;;;;;5167100;28;20037;-77
2023/08/17 07:59:29;;;;;;;15.57;6.22;;;28.00;99.90;;;;;;5166806;28;20029;-76
2023/08/17 08:02:00;;;;;;;12.70;5.93;;;28.00;99.90;;;;;;5166947;28;20030;-77
2023/08/17 08:04:31;;;;;;;15.57;5.90;;;28.00;99.90;;;;;;5149323;28;20430;-77
2023/08/17 08:07:01;;;;;;;12.82;6.75;;;28.10;99.90;;;;;;5167057;28;20026;-77
2023/08/17 08:09:32;;;;;;;16.30;6.25;;;28.30;99.90;;;;;;5149047;28;20424;-77
2023/08/17 08:12:03;;;;;;;14.48;6.30;;;28.30;99.90;;;;;;5149256;28;20034;-78
2023/08/17 08:14:35;;;;;;;13.57;5.70;;;28.30;99.90;;;;;;5167306;28;20030;-78
2023/08/17 08:17:06;;;;;;;17.83;6.30;;;28.40;99.90;;;;;;5149187;28;20069;-77
2023/08/17 08:19:37;;;;;;;18.77;6.35;;;28.40;99.90;;;;;;5148927;28;20053;-77
2023/08/17 08:22:08;;;;;;;11.77;5.85;;;28.50;99.90;;;;;;5166139;28;20528;-77
2023/08/17 08:24:41;;;;;;;14.90;5.78;;;28.60;99.90;;;;;;5149046;28;20031;-77
2023/08/17 08:27:11;;;;;;;16.23;6.00;;;28.60;99.90;;;;;;5149115;28;20030;-77
2023/08/17 08:29:42;;;;;;;12.40;5.72;;;28.80;99.90;;;;;;5166422;28;20537;-82
2023/08/17 08:32:13;;;;;;;14.85;6.15;;;29.20;99.90;;;;;;5166455;28;20027;-82
2023/08/17 08:34:44;;;;;;;14.32;6.40;;;29.20;99.90;;;;;;5148945;28;20045;-81
2023/08/17 08:37:15;;;;;;;15.00;6.47;;;29.20;99.90;;;;;;5166472;28;20033;-81
2023/08/17 08:39:54;;;;;;;19.17;6.53;;;28.90;99.90;;;;;;5166310;28;20023;-77
2023/08/17 08:42:25;;;;;;;13.77;6.25;;;28.90;99.90;;;;;;5166173;28;20034;-77
2023/08/17 08:44:56;;;;;;;13.10;6.50;;;29.00;99.90;;;;;;5148778;28;20490;-77
2023/08/17 08:47:29;;;;;;;17.17;5.82;;;29.10;99.90;;;;;;5166368;28;20112;-82
2023/08/17 08:50:02;;;;;;;16.67;6.13;;;29.20;99.90;;;;;;5166177;28;20026;-78
2023/08/17 08:52:42;;;;;;;13.43;6.20;;;29.20;99.90;;;;;;5148847;28;20066;-78
2023/08/17 08:55:23;;;;;;;15.10;6.70;;;29.30;99.90;;;;;;5166312;28;20023;-78
2023/08/17 08:57:55;;;;;;;14.07;6.10;;;29.30;99.90;;;;;;5166177;28;20030;-77
2023/08/17 09:00:27;;;;;;;15.77;6.75;;;29.20;99.90;;;;;;5148573;28;20042;-82
2023/08/17 09:02:59;;;;;;;11.00;5.93;;;29.30;99.90;;;;;;5149900;28;20076;-77
2023/08/17 09:05:34;;;;;;;12.45;5.97;;;29.00;99.90;;;;;;5170241;28;20482;-77
2023/08/17 09:08:08;;;;;;;14.80;6.60;;;29.20;99.90;;;;;;5170483;28;20023;-78
2023/08/17 09:10:39;;;;;;;13.15;5.88;;;29.20;99.90;;;;;;5170280;28;20023;-77
2023/08/17 09:13:10;;;;;;;14.07;6.57;;;29.10;99.90;;;;;;5169773;28;20093;-77
2023/08/17 09:15:41;;;;;;;16.52;6.53;;;28.90;99.90;;;;;;5152593;28;20022;-78
2023/08/17 09:18:12;;;;;;;15.88;6.68;;;29.30;99.90;;;;;;5170298;28;20023;-78
2023/08/17 09:20:47;;;;;;;15.25;6.63;;;29.20;99.90;;;;;;5152366;28;20552;-83
2023/08/17 09:23:20;;;;;;;10.95;5.88;;;29.20;99.90;;;;;;5152101;28;20101;-77
2023/08/17 09:25:52;;;;;;;18.15;6.78;;;29.10;99.90;;;;;;5169829;28;20030;-77
2023/08/17 09:28:23;;;;;;;13.50;6.32;;;29.20;99.90;;;;;;5169934;28;20015;-77
2023/08/17 09:31:05;;;;;;;12.90;6.82;;;29.20;99.90;;;;;;5169836;28;20110;-81
2023/08/17 09:33:36;;;;;;;15.32;6.43;;;29.40;99.90;;;;;;5152246;28;20553;-77
2023/08/17 09:36:11;;;;;;;17.25;7.28;;;29.50;99.90;;;;;;5152390;28;20085;-78
2023/08/17 09:38:42;;;;;;;21.65;7.90;;;29.50;99.90;;;;;;5152138;28;20034;-77
2023/08/17 09:41:13;;;;;;;15.10;7.18;;;29.50;99.90;;;;;;5169484;28;20040;-78
2023/08/17 09:43:45;;;;;;;13.80;7.65;;;29.70;99.90;;;;;;5169585;28;20022;-81
2023/08/17 09:46:17;;;;;;;13.88;6.50;;;29.60;99.90;;;;;;5169449;28;20034;-76
2023/08/17 09:48:48;;;;;;;16.60;6.95;;;29.70;99.90;;;;;;5169520;28;20015;-78
2023/08/17 09:51:19;;;;;;;15.60;6.50;;;29.50;99.90;;;;;;5151843;28;20038;-77
2023/08/17 09:53:53;;;;;;;13.07;5.88;;;29.80;99.90;;;;;;5168930;28;20026;-77
2023/08/17 09:56:24;;;;;;;14.55;6.68;;;30.00;99.90;;;;;;5169145;28;20533;-77
2023/08/17 09:58:55;;;;;;;20.08;6.60;;;29.70;99.90;;;;;;5169198;28;20479;-77
2023/08/17 10:01:29;;;;;;;13.35;6.35;;;29.60;99.90;;;;;;5151589;28;20042;-77
2023/08/17 10:04:02;;;;;;;14.00;6.47;;;29.80;99.90;;;;;;5168928;28;20058;-76
2023/08/17 10:06:34;;;;;;;14.82;6.53;;;29.90;99.90;;;;;;5169153;28;20053;-76
2023/08/17 10:09:06;;;;;;;12.82;6.70;;;29.70;99.90;;;;;;5169094;28;20026;-77
2023/08/17 10:11:39;;;;;;;12.70;6.55;;;29.60;99.90;;;;;;5168757;28;20030;-77
2023/08/17 10:14:18;;;;;;;18.73;6.38;;;29.60;99.90;;;;;;5168216;28;20053;-77
2023/08/17 10:17:00;;;;;;;12.23;5.93;;;29.90;99.90;;;;;;5168993;28;20030;-76
2023/08/17 10:19:54;;;;;;;13.00;6.75;;;29.70;99.90;;;;;;5151401;28;20157;-77
2023/08/17 10:22:44;;;;;;;14.48;6.38;;;29.70;99.90;;;;;;5168838;28;20497;-78
2023/08/17 10:25:16;;;;;;;15.05;6.05;;;30.00;99.90;;;;;;5169019;28;20031;-77
2023/08/17 10:27:48;;;;;;;12.25;6.43;;;30.10;99.90;;;;;;5168677;28;20114;-78
2023/08/17 10:30:19;;;;;;;15.15;6.03;;;30.10;99.90;;;;;;5151162;28;20030;-77
2023/08/17 10:32:50;;;;;;;14.55;5.57;;;30.00;99.90;;;;;;5168465;28;20077;-77
2023/08/17 10:35:22;;;;;;;11.32;5.72;;;30.00;99.90;;;;;;5168610;28;20031;-77
2023/08/17 10:37:53;;;;;;;14.38;6.35;;;29.90;99.90;;;;;;5168803;28;20061;-76
2023/08/17 10:40:36;;;;;;;15.40;6.28;;;29.90;99.90;;;;;;5150639;28;20101;-82
2023/08/17 10:43:07;;;;;;;13.00;6.40;;;29.70;99.90;;;;;;5168422;28;20030;-77
2023/08/17 10:45:39;;;;;;;14.60;5.93;;;30.20;99.90;;;;;;5168277;28;20041;-79
2023/08/17 10:48:09;;;;;;;13.57;6.40;;;29.90;99.90;;;;;;5150818;28;20475;-77
2023/08/17 10:50:40;;;;;;;14.82;5.68;;;29.90;99.90;;;;;;5150561;28;20080;-77
2023/08/17 10:53:13;;;;;;;14.40;6.20;;;29.70;99.90;;;;;;5168102;28;20092;-77
2023/08/17 10:55:52;;;;;;;14.27;6.20;;;29.90;99.90;;;;;;5168058;28;20058;-77
2023/08/17 10:58:23;;;;;;;15.07;6.20;;;29.90;99.90;;;;;;5150869;28;20475;-76
2023/08/17 11:00:57;;;;;;;18.50;6.13;;;30.00;99.90;;;;;;5150567;28;20049;-82
2023/08/17 11:03:28;;;;;;;14.77;6.50;;;29.80;99.90;;;;;;5150490;28;20033;-76
2023/08/17 11:06:15;;;;;;;13.40;5.82;;;29.80;99.90;;;;;;5150382;28;20375;-77
2023/08/17 11:08:55;;;;;;;14.60;5.60;;;29.70;99.90;;;;;;5150532;28;20030;-76
2023/08/17 11:11:31;;;;;;;16.90;5.93;;;29.40;99.90;;;;;;5150209;28;20034;-77
2023/08/17 11:14:02;;;;;;;12.75;6.05;;;29.60;99.90;;;;;;5167962;28;20076;-76
2023/08/17 11:16:33;;;;;;;18.98;6.97;;;29.70;99.90;;;;;;5150276;28;20030;-77
2023/08/17 11:19:03;;;;;;;18.35;6.65;;;29.60;99.90;;;;;;5150133;28;20386;-76
2023/08/17 11:21:35;;;;;;;13.98;7.20;;;29.60;99.90;;;;;;5167332;28;20053;-81
2023/08/17 11:24:09;;;;;;;18.25;6.88;;;29.40;99.90;;;;;;5167420;28;20189;-77
2023/08/17 11:26:40;;;;;;;13.45;6.65;;;29.50;99.90;;;;;;5167202;28;20049;-77
2023/08/17 11:29:11;;;;;;;18.85;6.40;;;29.50;99.90;;;;;;5167635;28;20030;-77
2023/08/17 11:31:42;;;;;;;14.32;6.57;;;29.40;99.90;;;;;;5167454;28;20383;-76
2023/08/17 11:34:15;;;;;;;14.30;5.93;;;29.50;99.90;;;;;;5167360;28;20026;-82
2023/08/17 11:36:46;;;;;;;17.95;7.15;;;29.50;99.90;;;;;;5167371;28;20109;-77
2023/08/17 11:39:20;;;;;;;17.10;7.13;;;29.30;99.90;;;;;;5150325;28;20022;-77
2023/08/17 11:41:52;;;;;;;15.35;6.32;;;29.30;99.90;;;;;;5149649;28;20030;-77
2023/08/17 11:44:24;;;;;;;16.95;6.95;;;29.20;99.90;;;;;;5167260;28;20026;-76
2023/08/17 11:46:55;;;;;;;17.45;6.53;;;29.10;99.90;;;;;;5167233;28;20089;-76
2023/08/17 11:49:26;;;;;;;15.75;6.43;;;29.10;99.90;;;;;;5167034;28;20026;-77
2023/08/17 11:51:57;;;;;;;14.32;6.78;;;29.30;99.90;;;;;;5149426;28;20030;-77
2023/08/17 11:54:28;;;;;;;15.05;6.22;;;29.10;99.90;;;;;;5149566;28;20033;-81
2023/08/17 11:56:58;;;;;;;18.40;6.95;;;29.00;99.90;;;;;;5166964;28;20101;-76
2023/08/17 11:59:32;;;;;;;19.75;7.43;;;29.00;99.90;;;;;;5149303;28;20034;-80
2023/08/17 12:02:03;;;;;;;16.10;6.75;;;29.00;99.90;;;;;;5166846;28;20030;-76
2023/08/17 12:04:34;;;;;;;13.55;7.18;;;28.90;99.90;;;;;;5166517;28;20113;-76
2023/08/17 12:07:06;;;;;;;13.30;7.03;;;29.00;99.90;;;;;;5149399;28;20057;-76
2023/08/17 12:09:37;;;;;;;18.13;7.25;;;28.80;99.90;;;;;;5166997;28;20030;-77
2023/08/17 12:12:09;;;;;;;15.82;7.43;;;28.90;99.90;;;;;;5167069;28;20031;-76
2023/08/17 12:14:43;;;;;;;12.63;6.63;;;28.90;99.90;;;;;;5149261;28;20026;-76
2023/08/17 12:17:18;;;;;;;15.40;6.72;;;28.70;99.90;;;;;;5167293;28;20023;-77
2023/08/17 12:19:50;;;;;;;16.73;7.03;;;28.70;99.90;;;;;;5166901;28;20054;-76
2023/08/17 12:22:25;;;;;;;19.58;7.03;;;28.80;99.90;;;;;;5148859;28;20133;-76
2023/08/17 12:24:56;;;;;;;15.38;7.65;;;28.70;99.90;;;;;;5166528;28;20140;-77
2023/08/17 12:27:27;;;;;;;17.58;7.47;;;28.60;99.90;;;;;;5166492;28;20109;-76
2023/08/17 12:29:58;;;;;;;12.30;6.63;;;28.50;99.90;;;;;;5166533;28;20045;-77
2023/08/17 12:32:29;;;;;;;14.32;7.40;;;28.50;99.90;;;;;;5166590;28;20027;-76
2023/08/17 12:35:00;;;;;;;17.08;8.65;;;28.50;99.90;;;;;;5166350;28;20054;-77
2023/08/17 12:37:31;;;;;;;17.45;7.63;;;28.30;99.90;;;;;;5148615;28;20058;-76
2023/08/17 12:40:03;;;;;;;16.90;7.32;;;28.30;99.90;;;;;;5148759;28;20694;-78
2023/08/17 12:42:34;;;;;;;18.65;8.23;;;28.20;99.90;;;;;;5148785;28;20611;-76
2023/08/17 12:45:05;;;;;;;15.43;7.38;;;28.20;99.90;;;;;;5148678;28;20022;-76
2023/08/17 12:47:36;;;;;;;22.02;8.90;;;28.10;99.90;;;;;;5148527;28;20446;-77
2023/08/17 12:50:08;;;;;;;25.00;8.45;;;28.00;99.90;;;;;;5148576;28;20478;-78
2023/08/17 12:52:39;;;;;;;16.80;7.38;;;27.90;99.90;;;;;;5166118;28;20384;-81
2023/08/17 12:55:10;;;;;;;16.35;8.13;;;27.90;99.90;;;;;;5148993;28;20042;-78
2023/08/17 12:57:40;;;;;;;20.92;8.13;;;27.80;99.90;;;;;;5166494;28;20050;-82
2023/08/17 13:00:12;;;;;;;17.95;7.90;;;27.70;99.90;;;;;;5148489;28;20070;-81